Etusivu
METAR-TAF:

METAR-TAF

Lentoasemat :

Caracas, Venezuela

Leveyspiiri: 10-36N, Pituuspiiri: 066-59W, korkeus merenpinnasta: 43 m

Tämänhetkinen sää

Tämä raportti tehtiin 1 tunti ja 0 minuuttia sitten, kello 01.00 UTC
Tuuli 4 kn koillisesta
Lämpötila 28°C
Kosteus 66%
Ilmanpaine 1013 hPa
Näkyvyys 10 km tai enemmän
Hajanaisia pilviä 1600 ft:n korkeudessa

METAR: SVMI 260100Z 05004KT 9999 SCT016 28/21 Q1013

Aika: 22:00 (02:00 UTC)

Sääennuste

Tämä raportti tehtiin 4 tuntia ja 0 minuuttia sitten, kello 22.00 UTC
Ennuste voimassa 26. päivästä klo 00 UTC - 27. päivään klo 00 UTC
Tuuli 5 kn koillisesta
Näkyvyys 10 km tai enemmän
Muutamia pilviä 1300 ft:n korkeudessa
Tulossa
26. päivästä klo 00 UTC - 26. päivään klo 04 UTC
Tuuli 7 kn eri suunnista
Näkyvyys: 9000 m
Hajonneita pilviä 1600 ft:n korkeudessa
heikkoa tihkusadetta

TAF: SVMI 252200Z 2600/2700 05005KT 9999 FEW013 TX33/18Z TN24/08Z BECMG 2600/2604 VRB07KT 9000 -DZ BKN016

Säähavainnot ja -ennusteet yli 4000 lentoasemalta (METAR- ja TAF-raportit).

Käytössä olevat sääasemat on merkitty karttaan keltaisilla ja punaisilla pisteillä.

Aseta hiiri pisteen päälle nähdäksesi sääaseman nimen.

Klikkaa sitten nähdäksesi säähavainnot ja -ennusteet.

Kartan vaihtaminen: klikkaa mustalla rastilla varustettuja vihreitä pisteitä, niin voit zoomata sisään; viivalla varustettua vihreää pistettä, niin voit zoomata ulos tai vihreitä nuolia, niin pääset viereisille kartoille.


METAR-TAF: